Time;durP1;ratioP1;P1;durP2;ratioP2;P2;SDS_P1;SDS_P2;PMS_P1;PMS_P2;Temp;Humidity;BMP_temperature;BMP_pressure;BME280_temperature;BME280_humidity;BME280_pressure;Samples;Min_cycle;Max_cycle;Signal;HPM_P1;HPM_P2
2021/11/25 07:40:26;;;;;;;9.20;6.23;;;-2.20;99.90;;;;;;5111915;27;20285;-75
2021/11/25 07:42:53;;;;;;;12.90;6.73;;;-2.10;99.90;;;;;;5111493;28;20429;-75
2021/11/25 07:45:21;;;;;;;31.17;9.27;;;-2.00;99.90;;;;;;5110132;28;20611;-76
2021/11/25 07:47:47;;;;;;;29.37;9.47;;;-2.00;99.90;;;;;;5111053;28;20914;-76
2021/11/25 07:50:21;;;;;;;13.47;8.47;;;-2.00;99.90;;;;;;5115719;28;20454;-78
2021/11/25 07:52:48;;;;;;;18.27;8.40;;;-1.90;99.90;;;;;;5110759;28;20217;-77
2021/11/25 07:55:16;;;;;;;20.50;11.07;;;-1.80;99.90;;;;;;5111948;28;20488;-77
2021/11/25 07:57:43;;;;;;;19.90;10.80;;;-1.80;99.90;;;;;;5110224;28;20958;-77
2021/11/25 08:00:11;;;;;;;14.83;7.93;;;-1.90;99.90;;;;;;5111197;28;20500;-77
2021/11/25 08:02:37;;;;;;;13.73;8.97;;;-1.30;99.90;;;;;;5115025;28;20444;-82
2021/11/25 08:05:03;;;;;;;13.43;8.77;;;-0.60;99.90;;;;;;5115199;28;20401;-77
2021/11/25 08:07:29;;;;;;;13.07;8.17;;;0.00;99.90;;;;;;5112326;28;20243;-77
2021/11/25 08:09:54;;;;;;;17.97;8.73;;;0.40;99.90;;;;;;5112167;28;20451;-77
2021/11/25 08:12:20;;;;;;;15.57;9.23;;;0.60;99.90;;;;;;5111120;28;20222;-77
2021/11/25 08:14:46;;;;;;;13.43;7.50;;;0.80;99.90;;;;;;5111654;28;20183;-77
2021/11/25 08:17:11;;;;;;;11.37;7.93;;;0.90;99.90;;;;;;5110307;28;20175;-77
2021/11/25 08:19:38;;;;;;;12.90;8.53;;;0.90;99.90;;;;;;5109534;28;20677;-77
2021/11/25 08:22:04;;;;;;;11.03;7.93;;;0.90;99.90;;;;;;5109528;28;20234;-77
2021/11/25 08:24:30;;;;;;;13.50;7.23;;;1.10;99.90;;;;;;5111529;28;20944;-77
2021/11/25 08:26:55;;;;;;;13.90;8.43;;;1.30;99.90;;;;;;5111503;28;20401;-77
2021/11/25 08:29:21;;;;;;;17.83;12.13;;;1.50;99.90;;;;;;5113310;28;20172;-78
2021/11/25 08:31:48;;;;;;;15.80;9.33;;;1.50;99.90;;;;;;5111867;28;20191;-78
2021/11/25 08:34:14;;;;;;;15.83;11.60;;;1.50;99.90;;;;;;5111194;28;20418;-78
2021/11/25 08:36:40;;;;;;;16.60;11.37;;;1.50;99.90;;;;;;5109730;28;20410;-77
2021/11/25 08:39:06;;;;;;;15.80;8.60;;;1.50;99.90;;;;;;5110885;28;20544;-77
2021/11/25 08:41:32;;;;;;;12.03;8.40;;;1.60;99.90;;;;;;5110853;28;20221;-77
2021/11/25 08:43:57;;;;;;;11.10;7.80;;;1.80;99.90;;;;;;5110891;28;20179;-78
2021/11/25 08:46:23;;;;;;;11.93;7.13;;;2.20;99.90;;;;;;5111101;28;20629;-78
2021/11/25 08:48:49;;;;;;;16.40;9.53;;;2.40;99.90;;;;;;5111186;28;20172;-78
2021/11/25 08:51:15;;;;;;;15.40;9.20;;;2.70;99.90;;;;;;5099389;28;20565;-78
2021/11/25 08:53:42;;;;;;;9.83;7.40;;;2.70;99.90;;;;;;5097917;28;20187;-78
2021/11/25 08:56:11;;;;;;;11.53;7.40;;;2.50;99.90;;;;;;5096686;28;20264;-78
2021/11/25 08:58:37;;;;;;;9.13;7.07;;;2.30;99.90;;;;;;5097928;28;20279;-78
2021/11/25 09:01:04;;;;;;;11.20;6.67;;;2.00;99.90;;;;;;5100463;28;20192;-78
2021/11/25 09:03:30;;;;;;;8.17;6.47;;;1.50;99.90;;;;;;5098903;28;20188;-78
2021/11/25 09:05:57;;;;;;;8.03;6.17;;;1.10;99.90;;;;;;5097144;28;20168;-78
2021/11/25 09:08:23;;;;;;;9.00;6.00;;;0.70;99.90;;;;;;5099152;28;20180;-78
2021/11/25 09:10:49;;;;;;;11.90;6.13;;;0.50;99.90;;;;;;5098468;28;20172;-78
2021/11/25 09:13:15;;;;;;;8.67;6.83;;;0.30;99.90;;;;;;5098893;28;20200;-78
2021/11/25 09:15:41;;;;;;;14.47;7.30;;;0.20;99.90;;;;;;5097337;28;20176;-78
2021/11/25 09:18:08;;;;;;;10.53;7.63;;;0.30;99.90;;;;;;5097050;28;20299;-78
2021/11/25 09:20:34;;;;;;;10.97;7.50;;;0.40;99.90;;;;;;5099108;28;20250;-78
2021/11/25 09:23:02;;;;;;;13.07;8.40;;;0.40;99.90;;;;;;5097680;28;20250;-78
2021/11/25 09:25:28;;;;;;;11.90;7.80;;;0.40;99.90;;;;;;5099251;28;20952;-78
2021/11/25 09:27:54;;;;;;;15.80;7.67;;;0.40;99.90;;;;;;5098254;28;20405;-78
2021/11/25 09:30:20;;;;;;;10.03;7.80;;;0.10;99.90;;;;;;5098393;28;20406;-77
2021/11/25 09:32:49;;;;;;;10.73;8.00;;;0.10;99.90;;;;;;5098609;28;20238;-78
2021/11/25 09:35:14;;;;;;;13.27;7.90;;;0.20;99.90;;;;;;5097394;28;20184;-78
2021/11/25 09:37:40;;;;;;;10.03;7.93;;;0.40;99.90;;;;;;5099972;28;20440;-77
2021/11/25 09:40:12;;;;;;;10.83;7.03;;;0.40;99.90;;;;;;5098282;28;20204;-78
2021/11/25 09:42:38;;;;;;;11.17;7.70;;;0.80;99.90;;;;;;5102904;28;20200;-78
2021/11/25 09:45:06;;;;;;;10.90;6.90;;;1.50;99.90;;;;;;5106001;28;20414;-78
2021/11/25 09:47:32;;;;;;;11.93;7.87;;;1.50;99.90;;;;;;5110200;28;20406;-78
2021/11/25 09:49:58;;;;;;;10.97;7.93;;;1.70;99.90;;;;;;5110684;28;20433;-78
2021/11/25 09:52:24;;;;;;;12.67;6.67;;;2.20;99.90;;;;;;5110511;28;20434;-78
2021/11/25 09:54:50;;;;;;;10.27;7.83;;;2.70;99.90;;;;;;5100367;28;20771;-78
2021/11/25 09:57:16;;;;;;;8.63;7.17;;;2.60;99.90;;;;;;5097106;28;20536;-78
2021/11/25 09:59:42;;;;;;;11.53;7.83;;;2.60;99.90;;;;;;5098925;28;20286;-78
2021/11/25 10:02:09;;;;;;;8.47;7.07;;;2.80;99.90;;;;;;5096158;28;20547;-78
2021/11/25 10:04:34;;;;;;;11.23;7.43;;;3.20;99.90;;;;;;5098444;28;20192;-78
2021/11/25 10:07:00;;;;;;;13.60;7.10;;;3.40;99.90;;;;;;5096797;28;20246;-78
2021/11/25 10:09:38;;;;;;;13.07;8.00;;;3.40;99.90;;;;;;5098102;28;20173;-78
2021/11/25 10:12:33;;;;;;;16.67;6.23;;;3.50;99.90;;;;;;5096979;28;20197;-78
2021/11/25 10:15:00;;;;;;;16.27;6.53;;;3.60;99.90;;;;;;5096639;28;20168;-78
2021/11/25 10:17:48;;;;;;;7.77;5.80;;;3.20;99.90;;;;;;5098157;28;20545;-77
2021/11/25 10:20:18;;;;;;;9.03;5.60;;;3.10;99.90;;;;;;5098020;28;20202;-78
2021/11/25 10:23:03;;;;;;;8.60;6.07;;;3.10;99.90;;;;;;5097284;28;20192;-78
2021/11/25 10:25:44;;;;;;;11.57;6.60;;;3.40;99.90;;;;;;5096518;28;20174;-78
2021/11/25 10:28:39;;;;;;;8.87;5.67;;;3.40;99.90;;;;;;5096836;28;20172;-78
2021/11/25 10:31:31;;;;;;;7.67;5.00;;;3.70;99.90;;;;;;5095058;28;20666;-78
2021/11/25 10:34:09;;;;;;;9.37;6.03;;;3.40;99.90;;;;;;5096933;28;20168;-78
2021/11/25 10:39:28;;;;;;;9.07;6.30;;;3.90;99.90;;;;;;5096879;28;20243;-78
2021/11/25 10:41:57;;;;;;;8.63;5.87;;;3.70;99.90;;;;;;5098555;28;20188;-78
2021/11/25 10:44:26;;;;;;;6.53;5.83;;;3.70;99.90;;;;;;5097007;28;20194;-78
2021/11/25 10:47:02;;;;;;;6.07;5.47;;;3.50;99.90;;;;;;5096952;28;20497;-78
2021/11/25 10:49:35;;;;;;;6.63;5.53;;;3.40;99.90;;;;;;5095721;28;20187;-78
2021/11/25 10:52:07;;;;;;;8.00;5.60;;;3.40;99.90;;;;;;5096998;28;20212;-78
2021/11/25 10:54:33;;;;;;;8.77;6.70;;;3.30;99.90;;;;;;5095895;28;20173;-78
2021/11/25 10:57:02;;;;;;;8.47;6.33;;;3.30;99.90;;;;;;5096977;28;20227;-78
2021/11/25 10:59:54;;;;;;;9.13;6.90;;;3.20;99.90;;;;;;5095527;28;20196;-78
2021/11/25 11:02:31;;;;;;;9.77;7.03;;;2.70;99.90;;;;;;5095678;28;20205;-78
2021/11/25 11:05:02;;;;;;;8.27;6.83;;;2.30;99.90;;;;;;5097399;28;20164;-79
2021/11/25 11:07:32;;;;;;;8.97;6.40;;;2.00;99.90;;;;;;5094613;28;20172;-78
2021/11/25 11:09:59;;;;;;;10.80;7.60;;;2.10;99.90;;;;;;5076370;28;20286;-79
2021/11/25 11:12:46;;;;;;;7.57;6.27;;;2.00;99.90;;;;;;5076145;28;20196;-79
2021/11/25 11:15:35;;;;;;;8.07;6.43;;;2.00;99.90;;;;;;5076559;28;20225;-79
2021/11/25 11:20:36;;;;;;;9.17;7.17;;;1.90;99.90;;;;;;5076578;28;20187;-79
2021/11/25 11:23:06;;;;;;;10.23;6.50;;;1.70;99.90;;;;;;5075496;28;20281;-78
2021/11/25 11:25:34;;;;;;;8.43;6.93;;;1.70;99.90;;;;;;5082363;28;20161;-79
2021/11/25 11:28:02;;;;;;;8.67;6.60;;;1.60;99.90;;;;;;5084428;28;20172;-79
2021/11/25 11:30:28;;;;;;;8.17;6.00;;;1.40;99.90;;;;;;5087320;28;20895;-79
2021/11/25 11:32:55;;;;;;;25.10;7.03;;;1.30;99.90;;;;;;5088149;28;20469;-78
2021/11/25 11:35:24;;;;;;;12.23;6.90;;;1.10;99.90;;;;;;5077871;28;20415;-78
2021/11/25 11:37:53;;;;;;;8.30;6.63;;;1.00;99.90;;;;;;5095412;28;20412;-79
2021/11/25 11:40:23;;;;;;;9.03;6.60;;;0.80;99.90;;;;;;5091713;28;20458;-79
2021/11/25 11:42:51;;;;;;;8.80;6.63;;;0.80;99.90;;;;;;5078202;28;20821;-78
2021/11/25 11:45:18;;;;;;;14.27;6.83;;;0.80;99.90;;;;;;5076639;28;20430;-79
2021/11/25 11:47:45;;;;;;;12.83;7.50;;;0.70;99.90;;;;;;5077017;28;20418;-79
2021/11/25 11:50:11;;;;;;;9.23;7.60;;;0.70;99.90;;;;;;5084671;28;20414;-81
2021/11/25 11:52:55;;;;;;;8.57;6.67;;;0.70;99.90;;;;;;5089660;28;20447;-79
2021/11/25 11:55:42;;;;;;;8.27;6.30;;;0.70;99.90;;;;;;5078845;28;20407;-80
2021/11/25 11:58:41;;;;;;;18.20;7.13;;;0.70;99.90;;;;;;5082476;28;20455;-79
2021/11/25 12:01:15;;;;;;;8.37;6.13;;;0.70;99.90;;;;;;5074256;28;20423;-79
2021/11/25 12:03:57;;;;;;;13.50;7.40;;;0.70;99.90;;;;;;5075965;28;20426;-80
2021/11/25 12:06:40;;;;;;;7.33;6.20;;;0.80;99.90;;;;;;5075810;28;20447;-79
2021/11/25 12:09:12;;;;;;;17.67;6.60;;;0.70;99.90;;;;;;5076607;28;20425;-79
2021/11/25 12:11:49;;;;;;;8.30;5.63;;;0.60;99.90;;;;;;5073065;28;20785;-79
2021/11/25 12:14:24;;;;;;;10.50;6.27;;;0.70;99.90;;;;;;5075032;28;20509;-80
2021/11/25 12:17:30;;;;;;;12.37;7.40;;;0.70;99.90;;;;;;5074928;28;20446;-81
2021/11/25 12:20:19;;;;;;;11.27;7.77;;;0.70;99.90;;;;;;5072680;28;20826;-78
2021/11/25 12:22:50;;;;;;;12.73;7.90;;;0.70;99.90;;;;;;5078135;28;20511;-78
2021/11/25 12:25:55;;;;;;;12.37;7.43;;;0.70;99.90;;;;;;5094768;28;20407;-79
2021/11/25 12:28:27;;;;;;;13.43;7.33;;;0.80;99.90;;;;;;5089315;28;20418;-79
2021/11/25 12:31:08;;;;;;;13.97;8.20;;;0.90;99.90;;;;;;5102210;28;20436;-80
2021/11/25 12:33:40;;;;;;;10.37;7.47;;;0.70;99.90;;;;;;5103374;28;20437;-78
2021/11/25 12:36:07;;;;;;;11.00;7.67;;;0.80;99.90;;;;;;5098248;28;20402;-78
2021/11/25 12:38:36;;;;;;;8.93;6.77;;;0.70;99.90;;;;;;5097908;28;20461;-78
2021/11/25 12:41:05;;;;;;;16.00;7.70;;;0.40;99.90;;;;;;5097483;28;20417;-78
2021/11/25 12:43:34;;;;;;;13.20;7.27;;;0.60;99.90;;;;;;5096169;28;20445;-77
2021/11/25 12:46:09;;;;;;;10.57;7.53;;;;;;;;;;5097785;28;20403;-78
2021/11/25 12:48:42;;;;;;;13.60;7.30;;;0.50;99.90;;;;;;5098798;28;20492;-78
2021/11/25 12:51:17;;;;;;;11.77;7.60;;;0.20;99.90;;;;;;5078055;28;20415;-78
2021/11/25 12:54:01;;;;;;;10.47;6.77;;;0.40;99.90;;;;;;5079689;28;20818;-80
2021/11/25 12:56:31;;;;;;;12.67;6.77;;;0.20;99.90;;;;;;5076640;28;20422;-78
2021/11/25 12:59:05;;;;;;;13.83;7.80;;;0.30;99.90;;;;;;5075688;28;20528;-78
2021/11/25 13:01:41;;;;;;;10.70;7.63;;;0.40;99.90;;;;;;5075889;28;20402;-79
2021/11/25 13:04:10;;;;;;;9.83;7.37;;;0.50;99.90;;;;;;5077746;28;20848;-79
2021/11/25 13:06:38;;;;;;;11.40;7.87;;;0.50;99.90;;;;;;5078210;28;20915;-79
2021/11/25 13:09:07;;;;;;;10.90;6.80;;;0.50;99.90;;;;;;5082730;28;20414;-78
2021/11/25 13:11:36;;;;;;;16.13;7.57;;;0.40;99.90;;;;;;5092818;28;20433;-80
2021/11/25 13:14:18;;;;;;;14.40;7.90;;;0.20;99.90;;;;;;5084601;28;20423;-79
2021/11/25 13:16:51;;;;;;;9.70;7.27;;;0.20;99.90;;;;;;5088879;28;20407;-79
2021/11/25 13:19:19;;;;;;;11.30;7.63;;;0.40;99.90;;;;;;5101662;28;20580;-79
2021/11/25 13:21:50;;;;;;;17.07;7.60;;;0.50;99.90;;;;;;5088174;28;20435;-78
2021/11/25 13:24:17;;;;;;;13.17;8.23;;;0.40;99.90;;;;;;5080293;28;20411;-78
2021/11/25 13:26:52;;;;;;;12.40;8.40;;;0.50;99.90;;;;;;5077320;28;20432;-78
2021/11/25 13:29:31;;;;;;;20.73;7.97;;;0.50;99.90;;;;;;5078196;28;20978;-78
2021/11/25 13:31:57;;;;;;;10.03;7.07;;;0.50;99.90;;;;;;5077450;28;20430;-78
2021/11/25 13:34:24;;;;;;;13.57;8.53;;;;;;;;;;5085135;28;20904;-78
2021/11/25 13:36:56;;;;;;;11.70;7.43;;;0.30;99.90;;;;;;5096913;28;20502;-78
2021/11/25 13:39:24;;;;;;;47.17;9.53;;;0.30;99.90;;;;;;5098147;28;20473;-78
2021/11/25 13:41:56;;;;;;;13.43;8.80;;;0.40;99.90;;;;;;5096337;28;20476;-78
2021/11/25 13:44:24;;;;;;;12.90;7.57;;;0.40;99.90;;;;;;5096781;28;20464;-78
2021/11/25 13:46:54;;;;;;;40.93;8.90;;;0.40;99.90;;;;;;5096451;28;20421;-78
2021/11/25 13:49:23;;;;;;;12.17;7.80;;;0.20;99.90;;;;;;5090509;28;20411;-78
2021/11/25 13:51:49;;;;;;;11.03;7.23;;;0.20;99.90;;;;;;5076481;28;20901;-79
2021/11/25 13:54:22;;;;;;;11.20;7.03;;;0.20;99.90;;;;;;5077510;28;20418;-78
2021/11/25 13:56:53;;;;;;;19.20;9.03;;;0.20;99.90;;;;;;5076977;28;20901;-79
2021/11/25 13:59:21;;;;;;;13.90;8.53;;;0.20;99.90;;;;;;5081281;28;20449;-78
2021/11/25 14:01:48;;;;;;;18.13;7.97;;;0.10;99.90;;;;;;5095761;28;20490;-78
2021/11/25 14:04:16;;;;;;;40.40;8.57;;;0.10;99.90;;;;;;5096125;28;20441;-78
2021/11/25 14:06:43;;;;;;;21.50;8.77;;;0.10;99.90;;;;;;5097010;28;20445;-78
2021/11/25 14:09:12;;;;;;;12.47;8.13;;;0.10;99.90;;;;;;5096297;28;20414;-78
2021/11/25 14:11:51;;;;;;;16.67;7.10;;;0.20;99.90;;;;;;5086283;28;20423;-78
2021/11/25 14:14:16;;;;;;;14.70;8.30;;;0.10;99.90;;;;;;5076994;28;20482;-78
2021/11/25 14:16:49;;;;;;;14.40;8.57;;;0.20;99.90;;;;;;5075447;28;20443;-78
2021/11/25 14:19:20;;;;;;;13.30;8.23;;;0.20;99.90;;;;;;5090715;28;20241;-79
2021/11/25 14:21:51;;;;;;;13.63;9.23;;;0.10;99.90;;;;;;5097136;28;20903;-79
2021/11/25 14:24:23;;;;;;;14.77;9.17;;;0.10;99.90;;;;;;5097486;28;20723;-78
2021/11/25 14:27:05;;;;;;;15.77;7.87;;;0.10;99.90;;;;;;5097035;28;20507;-79
2021/11/25 14:32:27;;;;;;;15.40;7.70;;;0.10;99.90;;;;;;5097589;28;20463;-79
2021/11/25 14:34:53;;;;;;;19.83;10.97;;;0.00;99.90;;;;;;5098504;28;20442;-79
2021/11/25 14:37:25;;;;;;;16.53;10.43;;;0.00;99.90;;;;;;5095065;28;20430;-78
2021/11/25 14:39:52;;;;;;;13.67;8.90;;;0.10;99.90;;;;;;5074839;28;20212;-78
2021/11/25 14:42:21;;;;;;;14.63;9.03;;;0.10;99.90;;;;;;5079838;28;20438;-78
2021/11/25 14:45:02;;;;;;;12.23;7.90;;;-0.50;99.90;;;;;;5094833;28;20410;-78
2021/11/25 14:48:04;;;;;;;26.50;8.30;;;0.00;99.90;;;;;;5096591;28;20402;-78
2021/11/25 14:50:37;;;;;;;66.10;9.70;;;-0.30;99.90;;;;;;5095099;28;20420;-78
2021/11/25 14:53:13;;;;;;;23.40;10.63;;;-0.10;99.90;;;;;;5094962;28;20529;-78
2021/11/25 14:55:58;;;;;;;22.50;8.53;;;0.00;99.90;;;;;;5094311;28;20489;-78
2021/11/25 14:58:26;;;;;;;14.87;9.57;;;-0.10;99.90;;;;;;5094894;28;20390;-78
2021/11/25 15:00:55;;;;;;;74.73;10.13;;;-0.10;99.90;;;;;;5094955;28;20481;-78
2021/11/25 15:03:21;;;;;;;28.47;10.47;;;-0.10;99.90;;;;;;5094716;28;20430;-78
2021/11/25 15:05:49;;;;;;;43.97;11.43;;;-0.10;99.90;;;;;;5093760;28;20819;-78
2021/11/25 15:08:20;;;;;;;21.87;12.10;;;-0.10;99.90;;;;;;5095228;28;20172;-78
2021/11/25 15:10:50;;;;;;;58.63;11.20;;;-0.10;99.90;;;;;;5093558;28;20409;-78
2021/11/25 15:13:17;;;;;;;22.03;10.30;;;-0.10;99.90;;;;;;5094751;28;20422;-78
2021/11/25 15:15:51;;;;;;;41.30;10.87;;;-0.10;99.90;;;;;;5095658;28;20413;-78
2021/11/25 15:18:21;;;;;;;25.90;9.73;;;-0.20;99.90;;;;;;5095882;28;20418;-78
2021/11/25 15:20:48;;;;;;;32.00;9.27;;;-0.20;99.90;;;;;;5096018;28;20399;-78
2021/11/25 15:23:15;;;;;;;41.57;11.30;;;-0.10;99.90;;;;;;5100904;28;20426;-78
2021/11/25 15:25:44;;;;;;;20.27;11.10;;;-0.10;99.90;;;;;;5099892;28;20406;-78
2021/11/25 15:28:12;;;;;;;18.30;11.00;;;-0.10;99.90;;;;;;5101650;28;20469;-78
2021/11/25 15:30:38;;;;;;;33.77;9.87;;;-0.10;99.90;;;;;;5098359;28;20421;-77
2021/11/25 15:33:09;;;;;;;17.00;10.50;;;-0.20;99.90;;;;;;5095397;28;20441;-78
2021/11/25 15:35:40;;;;;;;105.67;13.40;;;-0.20;99.90;;;;;;5094679;28;20472;-78
2021/11/25 15:38:07;;;;;;;29.10;12.50;;;-0.20;99.90;;;;;;5093250;28;20880;-78
2021/11/25 15:40:35;;;;;;;24.27;10.60;;;-0.20;99.90;;;;;;5093198;28;20454;-77
2021/11/25 15:43:02;;;;;;;27.67;11.97;;;-0.30;99.90;;;;;;5093306;28;20430;-78
2021/11/25 15:45:29;;;;;;;42.60;12.23;;;-0.30;99.90;;;;;;5094614;28;20406;-78
2021/11/25 15:47:55;;;;;;;37.93;12.33;;;-0.30;99.90;;;;;;5095380;28;20424;-78
2021/11/25 15:50:21;;;;;;;27.83;13.03;;;-0.20;99.90;;;;;;5094097;28;20819;-78
2021/11/25 15:52:46;;;;;;;66.83;13.10;;;-0.20;99.90;;;;;;5092864;28;20970;-78
2021/11/25 15:55:12;;;;;;;27.60;13.13;;;-0.20;99.90;;;;;;5094339;28;20270;-78
2021/11/25 15:57:38;;;;;;;32.33;11.97;;;-0.20;99.90;;;;;;5094612;28;20180;-78
2021/11/25 16:00:06;;;;;;;36.93;12.47;;;-0.20;99.90;;;;;;5095508;28;20204;-76
2021/11/25 16:02:33;;;;;;;39.80;13.30;;;;;;;;;;5097684;28;20207;-80
2021/11/25 16:04:58;;;;;;;66.80;13.03;;;-0.10;99.90;;;;;;5086882;28;20407;-79
2021/11/25 16:07:24;;;;;;;50.70;15.33;;;-0.10;99.90;;;;;;5077731;28;20430;-82
2021/11/25 16:09:50;;;;;;;20.30;11.57;;;-0.20;99.90;;;;;;5080934;28;20177;-77
2021/11/25 16:12:17;;;;;;;32.07;11.93;;;-0.20;99.90;;;;;;5077427;28;20565;-77
2021/11/25 16:14:46;;;;;;;31.47;13.13;;;-0.20;99.90;;;;;;5077145;28;20173;-76
2021/11/25 16:17:14;;;;;;;61.43;15.20;;;-0.20;99.90;;;;;;5077612;28;20443;-79
2021/11/25 16:19:42;;;;;;;46.70;13.17;;;-0.20;99.90;;;;;;5076543;28;20458;-78
2021/11/25 16:22:08;;;;;;;55.23;14.63;;;-0.10;99.90;;;;;;5084401;28;21012;-78
2021/11/25 16:24:34;;;;;;;25.77;11.43;;;-0.20;99.90;;;;;;5077801;28;20493;-77
2021/11/25 16:27:00;;;;;;;34.70;13.00;;;-0.20;99.90;;;;;;5082417;28;20457;-77
2021/11/25 16:29:26;;;;;;;27.67;12.83;;;-0.10;99.90;;;;;;5095823;28;20646;-78
2021/11/25 16:31:52;;;;;;;38.23;14.93;;;-0.10;99.90;;;;;;5105491;28;20226;-79
2021/11/25 16:34:22;;;;;;;91.60;15.10;;;-0.20;99.90;;;;;;5086665;28;20216;-79
2021/11/25 16:36:48;;;;;;;60.70;13.13;;;-0.20;99.90;;;;;;5079379;28;20439;-79
2021/11/25 16:39:14;;;;;;;95.93;21.80;;;-0.30;99.90;;;;;;5080443;28;20470;-79
2021/11/25 16:41:42;;;;;;;106.00;14.33;;;-0.30;99.90;;;;;;5080544;28;20177;-79
2021/11/25 16:44:09;;;;;;;99.00;13.03;;;-0.30;99.90;;;;;;5091382;28;20439;-80
2021/11/25 16:47:11;;;;;;;114.60;14.17;;;-0.30;99.90;;;;;;5099346;28;20417;-80
2021/11/25 16:49:28;;;;;;;113.73;13.53;;;-0.30;99.90;;;;;;5100522;28;20428;-79
2021/11/25 16:51:54;;;;;;;63.40;13.13;;;-0.30;99.90;;;;;;5098377;28;20438;-78
2021/11/25 16:54:21;;;;;;;92.93;13.43;;;-0.20;99.90;;;;;;5099177;28;20437;-79
2021/11/25 16:56:47;;;;;;;59.13;14.00;;;-0.20;99.90;;;;;;5098965;28;20500;-80
2021/11/25 16:59:13;;;;;;;56.97;14.57;;;-0.20;99.90;;;;;;5100270;28;20465;-80
2021/11/25 17:01:39;;;;;;;138.20;15.80;;;-0.20;99.90;;;;;;5102529;28;20414;-79
2021/11/25 17:04:04;;;;;;;95.83;14.80;;;-0.10;99.90;;;;;;5101778;28;20172;-79
2021/11/25 17:06:30;;;;;;;79.77;15.70;;;-0.10;99.90;;;;;;5097287;28;20188;-79
2021/11/25 17:08:56;;;;;;;33.07;14.03;;;-0.10;99.90;;;;;;5079334;28;20181;-79
2021/11/25 17:11:22;;;;;;;45.97;14.03;;;-0.20;99.90;;;;;;5077827;28;20238;-79
2021/11/25 17:13:48;;;;;;;93.20;15.77;;;-0.20;99.90;;;;;;5087457;28;20214;-79
2021/11/25 17:16:14;;;;;;;73.63;13.27;;;-0.10;99.90;;;;;;5087488;28;20240;-79
2021/11/25 17:18:41;;;;;;;182.07;15.03;;;-0.20;99.90;;;;;;5078566;28;20528;-79
2021/11/25 17:21:09;;;;;;;101.83;14.03;;;-0.20;99.90;;;;;;5086014;28;20171;-83
2021/11/25 17:23:36;;;;;;;47.33;14.83;;;-0.30;99.90;;;;;;5080183;28;20481;-78
2021/11/25 17:26:03;;;;;;;105.53;14.03;;;-0.30;99.90;;;;;;5077450;28;20433;-78
2021/11/25 17:28:29;;;;;;;69.63;12.27;;;-0.30;99.90;;;;;;5098709;28;20482;-78
2021/11/25 17:30:55;;;;;;;68.47;14.87;;;-0.30;99.90;;;;;;5098034;28;20430;-78
2021/11/25 17:33:21;;;;;;;65.80;12.40;;;-0.30;99.90;;;;;;5095454;28;20566;-78
2021/11/25 17:35:48;;;;;;;89.80;13.57;;;-0.30;99.90;;;;;;5102654;28;20482;-78
2021/11/25 17:38:15;;;;;;;58.60;13.33;;;-0.30;99.90;;;;;;5089415;28;20188;-77
2021/11/25 17:40:42;;;;;;;108.40;19.97;;;-0.30;99.90;;;;;;5076597;28;21033;-77
2021/11/25 17:43:10;;;;;;;59.20;15.47;;;-0.30;99.90;;;;;;5078193;28;20430;-77
2021/11/25 17:45:41;;;;;;;95.67;13.33;;;-0.30;99.90;;;;;;5077220;28;20407;-78
2021/11/25 17:48:07;;;;;;;97.90;13.70;;;-0.30;99.90;;;;;;5078200;28;20414;-79
2021/11/25 17:50:35;;;;;;;109.97;14.80;;;-0.30;99.90;;;;;;5078907;28;20764;-77
2021/11/25 17:53:02;;;;;;;146.77;14.53;;;-0.30;99.90;;;;;;5096024;28;20864;-77
2021/11/25 17:55:28;;;;;;;153.80;14.57;;;-0.30;99.90;;;;;;5094531;28;20442;-77
2021/11/25 17:57:54;;;;;;;73.27;14.00;;;-0.30;99.90;;;;;;5077337;28;20970;-77
2021/11/25 18:00:22;;;;;;;39.37;12.90;;;-0.30;99.90;;;;;;5089265;28;20467;-77
2021/11/25 18:02:48;;;;;;;31.50;13.80;;;-0.30;99.90;;;;;;5074691;28;20201;-77
2021/11/25 18:05:15;;;;;;;88.00;15.43;;;-0.30;99.90;;;;;;5076011;28;20850;-77
2021/11/25 18:07:42;;;;;;;45.40;14.60;;;-0.30;99.90;;;;;;5081443;28;20267;-77
2021/11/25 18:10:08;;;;;;;119.33;24.43;;;-0.30;99.90;;;;;;5094170;28;20450;-77
2021/11/25 18:12:34;;;;;;;49.13;16.67;;;-0.40;99.90;;;;;;5094667;28;20467;-77
2021/11/25 18:15:03;;;;;;;131.67;14.30;;;-0.40;99.90;;;;;;5095767;28;20414;-77
2021/11/25 18:17:29;;;;;;;92.27;14.23;;;-0.50;99.90;;;;;;5079289;28;20318;-77
2021/11/25 18:19:54;;;;;;;54.53;13.30;;;-0.50;99.90;;;;;;5074945;28;20546;-77
2021/11/25 18:22:22;;;;;;;92.37;15.77;;;-0.40;99.90;;;;;;5073920;28;20199;-77
2021/11/25 18:24:48;;;;;;;110.23;13.27;;;-0.40;99.90;;;;;;5074529;28;20176;-77
2021/11/25 18:27:14;;;;;;;64.77;12.93;;;-0.30;99.90;;;;;;5075680;28;20897;-77
2021/11/25 18:29:43;;;;;;;98.00;14.73;;;-0.30;99.90;;;;;;5073491;28;20177;-77
2021/11/25 18:32:11;;;;;;;140.47;15.33;;;-0.30;99.90;;;;;;5085134;28;20442;-77
2021/11/25 18:34:37;;;;;;;69.23;14.80;;;-0.10;99.90;;;;;;5094947;28;20969;-77
2021/11/25 18:37:04;;;;;;;93.50;15.17;;;-0.10;99.90;;;;;;5094914;28;20411;-78
2021/11/25 18:39:32;;;;;;;95.87;15.70;;;-0.10;99.90;;;;;;5093978;28;20468;-77
2021/11/25 18:42:05;;;;;;;114.03;16.73;;;0.00;99.90;;;;;;5087644;28;20802;-77
2021/11/25 18:44:31;;;;;;;98.97;12.70;;;0.00;99.90;;;;;;5075406;28;20745;-78
2021/11/25 18:46:57;;;;;;;89.90;13.83;;;-0.10;99.90;;;;;;5074641;28;20759;-77
2021/11/25 18:49:23;;;;;;;163.43;17.03;;;-0.10;99.90;;;;;;5092310;28;20438;-77
2021/11/25 18:51:51;;;;;;;75.17;13.07;;;-0.20;99.90;;;;;;5095585;28;20438;-78
2021/11/25 18:54:18;;;;;;;105.83;13.43;;;-0.20;99.90;;;;;;5097310;28;20629;-77
2021/11/25 18:56:44;;;;;;;68.53;14.10;;;-0.20;99.90;;;;;;5076736;28;20462;-78
2021/11/25 18:59:10;;;;;;;75.47;13.53;;;-0.20;99.90;;;;;;5074981;28;20472;-77
2021/11/25 19:01:36;;;;;;;73.00;15.03;;;-0.30;99.90;;;;;;5074439;28;20489;-77
2021/11/25 19:04:02;;;;;;;41.43;15.07;;;;;;;;;;5074664;28;20445;-77
2021/11/25 19:06:28;;;;;;;63.37;15.80;;;-0.20;99.90;;;;;;5094798;28;20237;-77
2021/11/25 19:08:54;;;;;;;133.17;16.97;;;-0.20;99.90;;;;;;5094940;28;20903;-77
2021/11/25 19:11:21;;;;;;;101.03;12.57;;;-0.20;99.90;;;;;;5094946;28;20222;-78
2021/11/25 19:13:47;;;;;;;60.20;13.13;;;-0.20;99.90;;;;;;5093422;28;20504;-80
2021/11/25 19:16:15;;;;;;;38.73;14.40;;;-0.30;99.90;;;;;;5094460;28;20444;-77
2021/11/25 19:18:42;;;;;;;69.00;13.80;;;-0.30;99.90;;;;;;5093839;28;20422;-77
2021/11/25 19:21:08;;;;;;;73.40;13.80;;;-0.30;99.90;;;;;;5095243;28;20441;-77
2021/11/25 19:23:34;;;;;;;92.77;14.17;;;-0.30;99.90;;;;;;5096143;28;20430;-78
2021/11/25 19:26:00;;;;;;;76.87;13.17;;;;;;;;;;5082985;28;20572;-77
2021/11/25 19:28:25;;;;;;;109.63;13.00;;;-0.20;99.90;;;;;;5075856;28;20454;-79
2021/11/25 19:30:52;;;;;;;67.93;11.93;;;-0.20;99.90;;;;;;5080632;28;20403;-78
2021/11/25 19:33:18;;;;;;;28.43;11.23;;;;;;;;;;5087012;28;20673;-79
2021/11/25 19:35:45;;;;;;;46.10;11.77;;;;;;;;;;5085490;28;20437;-77
2021/11/25 19:38:10;;;;;;;40.53;13.23;;;-0.10;99.90;;;;;;5081866;28;20464;-78
2021/11/25 19:40:37;;;;;;;29.47;11.73;;;-0.20;99.90;;;;;;5074308;28;20462;-77
2021/11/25 19:43:03;;;;;;;47.00;14.33;;;;;;;;;;5075573;28;20196;-77
2021/11/25 19:45:29;;;;;;;64.80;12.27;;;-0.50;99.90;;;;;;5086929;28;20418;-78
2021/11/25 19:47:56;;;;;;;43.83;13.20;;;-0.20;99.90;;;;;;5094024;28;20475;-78
2021/11/25 19:50:23;;;;;;;42.83;12.20;;;-0.20;99.90;;;;;;5096892;28;20171;-77
2021/11/25 19:52:50;;;;;;;35.83;10.93;;;-0.30;99.90;;;;;;5096140;28;20444;-79
2021/11/25 19:55:18;;;;;;;22.90;10.77;;;-0.30;99.90;;;;;;5083942;28;20430;-79
2021/11/25 19:57:46;;;;;;;35.67;11.30;;;;;;;;;;5080477;28;20453;-78
2021/11/25 20:00:34;;;;;;;39.13;11.90;;;-0.30;99.90;;;;;;5077337;28;20485;-79
2021/11/25 20:03:01;;;;;;;24.87;10.83;;;;;;;;;;5075821;28;20439;-79
2021/11/25 20:05:27;;;;;;;25.90;10.47;;;;;;;;;;5091630;28;20482;-79
2021/11/25 20:07:53;;;;;;;32.40;9.93;;;-0.40;99.90;;;;;;5097843;28;20407;-79
2021/11/25 20:10:20;;;;;;;28.70;10.80;;;-0.40;99.90;;;;;;5097552;28;20406;-79
2021/11/25 20:12:50;;;;;;;27.60;11.40;;;-0.40;99.90;;;;;;5082203;28;20454;-78
2021/11/25 20:15:18;;;;;;;27.50;10.67;;;-0.50;99.90;;;;;;5087061;28;20476;-79
2021/11/25 20:17:45;;;;;;;82.50;12.63;;;;;;;;;;5096456;28;20409;-79
2021/11/25 20:20:11;;;;;;;21.87;9.93;;;;;;;;;;5095433;28;20453;-79
2021/11/25 20:22:38;;;;;;;19.30;11.73;;;;;;;;;;5096926;28;20429;-78
2021/11/25 20:25:05;;;;;;;26.67;10.77;;;;;;;;;;5084517;28;20464;-79
2021/11/25 20:27:32;;;;;;;22.10;9.90;;;-0.50;99.90;;;;;;5075957;28;20418;-79
2021/11/25 20:29:58;;;;;;;16.93;9.20;;;;;;;;;;5075902;28;20802;-78
2021/11/25 20:32:24;;;;;;;14.53;7.70;;;;;;;;;;5075130;28;20431;-76
2021/11/25 20:34:51;;;;;;;16.57;8.23;;;;;;;;;;5073418;28;20419;-77
2021/11/25 20:37:17;;;;;;;19.43;9.07;;;;;;;;;;5073961;28;20426;-76
2021/11/25 20:39:43;;;;;;;32.47;9.10;;;;;;;;;;5080865;28;20477;-78
2021/11/25 20:42:09;;;;;;;25.67;9.70;;;;;;;;;;5095994;28;20451;-78
2021/11/25 20:44:35;;;;;;;31.70;8.73;;;;;;;;;;5088868;28;20524;-79